Time;durP1;ratioP1;P1;durP2;ratioP2;P2;SDS_P1;SDS_P2;PMS_P1;PMS_P2;Temp;Humidity;BMP_temperature;BMP_pressure;BME280_temperature;BME280_humidity;BME280_pressure;Samples;Min_cycle;Max_cycle;Signal;HPM_P1;HPM_P2
2022/05/29 00:06:56;;;;;;;0.20;0.10;;;20.60;99.90;;;;;;26434877;22;20201;-76
2022/05/29 00:17:00;;;;;;;0.20;0.00;;;20.70;99.90;;;;;;26408647;22;20257;-76
2022/05/29 00:27:06;;;;;;;0.20;0.00;;;20.60;99.90;;;;;;26406841;22;20239;-75
2022/05/29 00:37:12;;;;;;;0.20;0.00;;;20.50;99.90;;;;;;26405887;22;20158;-75
2022/05/29 00:47:19;;;;;;;0.20;0.10;;;20.50;99.90;;;;;;26432789;22;20189;-76
2022/05/29 00:57:28;;;;;;;0.20;0.00;;;20.60;99.90;;;;;;26434510;22;20201;-74
2022/05/29 01:07:36;;;;;;;0.20;0.10;;;20.50;99.90;;;;;;26403393;22;20213;-74
2022/05/29 01:17:49;;;;;;;0.20;0.00;;;20.50;99.90;;;;;;26404076;22;20174;-75
2022/05/29 01:28:32;;;;;;;0.20;0.10;;;20.10;99.90;;;;;;26433385;22;20197;-76
2022/05/29 01:38:42;;;;;;;0.20;0.10;;;20.40;99.90;;;;;;26248820;22;20170;-76
2022/05/29 01:48:54;;;;;;;0.20;0.10;;;20.10;99.90;;;;;;26405379;22;20197;-77
2022/05/29 01:59:01;;;;;;;0.20;0.10;;;20.10;99.90;;;;;;26431278;22;20178;-77
2022/05/29 02:09:10;;;;;;;0.20;0.10;;;20.20;99.90;;;;;;26431805;22;20200;-75
2022/05/29 02:19:19;;;;;;;0.20;0.10;;;20.10;99.90;;;;;;26402030;22;20173;-75
2022/05/29 02:29:24;;;;;;;0.20;0.00;;;20.20;99.90;;;;;;26427975;22;20182;-77
2022/05/29 02:39:43;;;;;;;0.20;0.00;;;20.10;99.90;;;;;;26377352;22;20176;-77
2022/05/29 02:50:07;;;;;;;0.20;0.00;;;20.20;99.90;;;;;;26400992;22;20186;-75
2022/05/29 03:00:13;;;;;;;0.20;0.10;;;20.00;99.90;;;;;;26408538;22;20177;-75
2022/05/29 03:10:21;;;;;;;0.20;0.10;;;19.90;99.90;;;;;;26412963;22;20194;-76
2022/05/29 03:20:38;;;;;;;0.20;0.10;;;19.80;99.90;;;;;;26442628;22;20161;-74
2022/05/29 03:30:45;;;;;;;0.20;0.10;;;19.90;99.90;;;;;;26412492;22;20181;-75
2022/05/29 03:40:51;;;;;;;0.20;0.00;;;19.80;99.90;;;;;;26414650;22;20173;-74
2022/05/29 03:50:56;;;;;;;0.20;0.00;;;19.70;99.90;;;;;;26441879;22;20182;-75
2022/05/29 04:01:00;;;;;;;0.20;0.10;;;19.40;99.90;;;;;;26415912;22;20213;-76
2022/05/29 04:21:29;;;;;;;0.20;0.00;;;18.70;99.90;;;;;;26433756;22;20177;-74
2022/05/29 04:31:35;;;;;;;0.20;0.00;;;18.50;99.90;;;;;;26405253;22;20178;-75
2022/05/29 04:41:39;;;;;;;0.20;0.00;;;18.30;99.90;;;;;;26431793;22;20174;-75
2022/05/29 04:51:44;;;;;;;0.20;0.07;;;18.30;99.90;;;;;;26405442;22;20205;-74
2022/05/29 05:01:49;;;;;;;0.20;0.10;;;18.40;99.90;;;;;;26405936;22;20163;-74
2022/05/29 05:11:55;;;;;;;0.20;0.10;;;18.40;99.90;;;;;;26402002;22;20194;-77
2022/05/29 05:22:01;;;;;;;0.20;0.00;;;18.60;99.90;;;;;;26402925;22;20146;-75
2022/05/29 05:32:08;;;;;;;0.20;0.00;;;19.00;99.90;;;;;;26430358;22;20197;-74
2022/05/29 05:42:11;;;;;;;0.20;0.00;;;19.30;99.90;;;;;;26401981;22;20185;-74
2022/05/29 05:52:17;;;;;;;0.20;0.00;;;19.80;99.90;;;;;;26372902;22;20198;-75
2022/05/29 06:02:23;;;;;;;0.20;0.10;;;20.50;99.90;;;;;;26428672;22;20166;-76
2022/05/29 06:12:29;;;;;;;0.20;0.00;;;21.00;99.90;;;;;;26402310;22;20198;-75
2022/05/29 06:22:36;;;;;;;0.20;0.00;;;21.20;99.90;;;;;;26428758;22;20162;-74
2022/05/29 06:32:42;;;;;;;0.20;0.00;;;21.20;99.90;;;;;;26398322;22;20182;-74
2022/05/29 06:42:46;;;;;;;0.20;0.00;;;21.50;99.90;;;;;;26425210;22;20167;-74
2022/05/29 06:52:51;;;;;;;0.20;0.00;;;21.60;99.90;;;;;;26371500;22;20230;-75
2022/05/29 07:13:18;;;;;;;0.20;0.00;;;21.60;99.90;;;;;;26423059;22;20197;-75
2022/05/29 07:23:23;;;;;;;0.20;0.00;;;21.80;99.90;;;;;;26396524;22;20158;-75
2022/05/29 07:33:29;;;;;;;0.20;0.00;;;21.80;99.90;;;;;;26421427;22;20201;-73
2022/05/29 07:43:33;;;;;;;0.20;0.00;;;22.30;99.90;;;;;;26423048;22;20237;-75
2022/05/29 07:53:38;;;;;;;0.20;0.00;;;22.40;99.90;;;;;;26430680;22;20213;-74
2022/05/29 08:03:42;;;;;;;0.20;0.00;;;22.60;99.90;;;;;;26399152;22;20166;-75
2022/05/29 08:13:47;;;;;;;0.20;0.00;;;22.80;99.90;;;;;;26430514;22;20227;-74
2022/05/29 08:34:10;;;;;;;0.20;0.00;;;23.00;99.90;;;;;;26425618;22;20185;-75
2022/05/29 08:44:16;;;;;;;0.20;0.00;;;23.00;99.90;;;;;;26427391;22;20177;-72
2022/05/29 08:54:34;;;;;;;0.20;0.00;;;22.90;99.90;;;;;;26422154;22;20312;-73
2022/05/29 09:04:43;;;;;;;0.20;0.00;;;23.20;99.90;;;;;;26426293;22;20166;-72
2022/05/29 09:14:52;;;;;;;0.20;0.10;;;23.80;99.90;;;;;;26398130;22;20258;-72
2022/05/29 09:25:06;;;;;;;0.20;0.00;;;24.20;99.90;;;;;;26393906;22;20234;-73
2022/05/29 09:35:22;;;;;;;0.20;0.00;;;24.50;99.90;;;;;;26393141;22;20196;-69
2022/05/29 09:45:28;;;;;;;0.20;0.00;;;24.50;99.90;;;;;;26394913;22;20158;-71
2022/05/29 09:55:36;;;;;;;0.20;0.00;;;24.60;99.90;;;;;;26423491;22;20193;-72
2022/05/29 10:05:43;;;;;;;0.20;0.00;;;24.50;99.90;;;;;;26392700;22;20196;-68
2022/05/29 10:15:48;;;;;;;0.20;0.00;;;24.60;99.90;;;;;;26393340;22;20184;-71
2022/05/29 10:25:57;;;;;;;0.20;0.00;;;23.90;99.90;;;;;;26392720;22;20173;-68
2022/05/29 10:36:14;;;;;;;0.20;0.00;;;24.20;99.90;;;;;;26419253;22;20736;-72
2022/05/29 10:46:20;;;;;;;0.20;0.00;;;24.00;99.90;;;;;;26390161;22;20155;-73
2022/05/29 10:56:33;;;;;;;0.20;0.00;;;23.90;99.90;;;;;;26421017;22;20261;-69
2022/05/29 11:07:07;;;;;;;0.20;0.00;;;24.30;99.90;;;;;;26392367;22;20276;-71
2022/05/29 11:17:24;;;;;;;0.20;0.00;;;24.10;99.90;;;;;;26363311;22;20173;-72
2022/05/29 11:27:49;;;;;;;0.20;0.10;;;25.50;99.90;;;;;;26371128;22;20166;-72
2022/05/29 11:38:22;;;;;;;0.20;0.10;;;25.40;99.90;;;;;;26427176;22;20170;-72
2022/05/29 11:59:05;;;;;;;0.20;0.00;;;26.60;99.90;;;;;;26427118;22;20193;-66
2022/05/29 12:09:13;;;;;;;0.20;0.10;;;26.10;99.90;;;;;;26400429;22;20216;-71
2022/05/29 12:19:23;;;;;;;0.20;0.00;;;27.10;99.90;;;;;;26427433;22;20162;-70
2022/05/29 12:29:34;;;;;;;0.20;0.00;;;27.80;99.90;;;;;;26424749;22;20194;-72
2022/05/29 12:40:17;;;;;;;0.20;0.00;;;27.70;99.90;;;;;;26425532;22;20158;-74
2022/05/29 12:50:36;;;;;;;0.20;0.10;;;28.20;99.90;;;;;;26415526;22;20198;-74
2022/05/29 13:01:15;;;;;;;0.20;0.00;;;28.70;99.90;;;;;;26426577;22;20193;-75
2022/05/29 13:11:26;;;;;;;0.20;0.00;;;28.50;99.90;;;;;;26400073;22;20257;-76
2022/05/29 13:21:30;;;;;;;0.20;0.00;;;28.80;99.90;;;;;;26399658;22;20172;-76
2022/05/29 13:32:19;;;;;;;0.20;0.00;;;28.60;99.90;;;;;;26429621;22;20215;-76
2022/05/29 13:42:29;;;;;;;0.20;0.00;;;29.00;99.90;;;;;;26375987;22;20166;-74
2022/05/29 13:52:42;;;;;;;0.20;0.00;;;29.40;99.90;;;;;;26425481;22;20514;-75
2022/05/29 14:13:30;;;;;;;0.20;0.00;;;28.90;99.90;;;;;;26420996;22;20201;-74
2022/05/29 14:24:03;;;;;;;0.20;0.00;;;29.30;99.90;;;;;;26420890;22;20157;-76
2022/05/29 14:34:32;;;;;;;0.20;0.05;;;29.30;99.90;;;;;;26409414;22;20590;-74
2022/05/29 14:44:40;;;;;;;0.20;0.00;;;29.30;99.90;;;;;;26394032;22;20166;-75
2022/05/29 14:54:50;;;;;;;0.20;0.00;;;29.50;99.90;;;;;;26420122;22;20193;-73
2022/05/29 15:05:02;;;;;;;0.20;0.00;;;29.30;99.90;;;;;;26420178;22;20189;-73
2022/05/29 15:15:20;;;;;;;0.20;0.00;;;29.20;99.90;;;;;;26421342;22;20194;-76
2022/05/29 15:25:24;;;;;;;0.20;0.00;;;29.10;99.90;;;;;;26394028;22;20158;-75
2022/05/29 15:35:34;;;;;;;0.20;0.00;;;28.90;99.90;;;;;;26420201;22;20182;-75
2022/05/29 15:45:54;;;;;;;0.20;0.00;;;28.50;99.90;;;;;;26421065;22;20162;-75
2022/05/29 15:56:07;;;;;;;0.20;0.00;;;28.60;99.90;;;;;;26419508;22;20239;-75
2022/05/29 16:06:15;;;;;;;0.20;0.00;;;28.90;99.90;;;;;;26391206;22;20185;-73
2022/05/29 16:16:22;;;;;;;0.20;0.10;;;28.20;99.90;;;;;;26426123;22;20184;-74
2022/05/29 16:26:34;;;;;;;0.20;0.00;;;26.80;99.90;;;;;;26425872;22;20166;-75
2022/05/29 16:48:07;;;;;;;0.20;0.00;;;25.70;99.90;;;;;;26422727;22;20192;-75
2022/05/29 16:57:34;;;;;;;0.20;0.00;;;25.70;99.90;;;;;;26425643;22;20193;-68
2022/05/29 17:07:46;;;;;;;0.20;0.00;;;27.00;99.90;;;;;;26416492;22;20193;-74
2022/05/29 17:17:52;;;;;;;0.20;0.00;;;28.20;99.90;;;;;;26420990;22;20181;-73
2022/05/29 17:28:11;;;;;;;0.20;0.00;;;27.90;99.90;;;;;;26395955;22;20158;-73
2022/05/29 17:38:21;;;;;;;0.20;0.10;;;27.80;99.90;;;;;;26394306;22;20188;-72
2022/05/29 17:48:35;;;;;;;0.20;0.00;;;27.20;99.90;;;;;;26425178;22;20181;-77
2022/05/29 17:58:41;;;;;;;0.20;0.00;;;27.10;99.90;;;;;;26421547;22;20182;-76
2022/05/29 18:08:47;;;;;;;0.20;0.00;;;26.90;99.90;;;;;;26419131;22;20194;-76
2022/05/29 18:18:52;;;;;;;0.20;0.10;;;26.60;99.90;;;;;;26421857;22;20170;-77
2022/05/29 18:28:57;;;;;;;0.20;0.03;;;26.00;99.90;;;;;;26422441;22;20185;-76
2022/05/29 18:39:02;;;;;;;0.20;0.00;;;24.90;99.90;;;;;;26394587;22;20166;-70
2022/05/29 18:49:08;;;;;;;0.20;0.00;;;24.40;99.90;;;;;;26366217;22;20197;-71
2022/05/29 18:59:16;;;;;;;0.20;0.00;;;22.80;99.90;;;;;;26397106;22;20186;-76
2022/05/29 19:09:20;;;;;;;0.20;0.00;;;22.10;99.90;;;;;;26395183;22;20209;-74
2022/05/29 19:19:25;;;;;;;0.20;0.00;;;21.80;99.90;;;;;;26399235;22;20173;-76
2022/05/29 19:29:30;;;;;;;0.20;0.00;;;21.50;99.90;;;;;;26393755;22;20198;-75
2022/05/29 19:39:35;;;;;;;0.20;0.00;;;21.40;99.90;;;;;;26393722;22;20252;-74
2022/05/29 19:49:39;;;;;;;0.20;0.00;;;21.30;99.90;;;;;;26426606;22;20178;-75
2022/05/29 19:59:49;;;;;;;0.20;0.10;;;21.10;99.90;;;;;;26429959;22;20211;-69
2022/05/29 20:09:52;;;;;;;0.20;0.00;;;20.60;99.90;;;;;;26401109;22;20229;-75
2022/05/29 20:19:59;;;;;;;0.20;0.10;;;20.40;99.90;;;;;;26399366;22;20146;-75
2022/05/29 20:30:04;;;;;;;0.20;0.00;;;20.30;99.90;;;;;;26429655;22;20186;-75
2022/05/29 20:40:11;;;;;;;0.20;0.00;;;20.20;99.90;;;;;;26429133;22;20162;-75
2022/05/29 20:50:15;;;;;;;0.20;0.10;;;20.10;99.90;;;;;;26428987;22;20205;-74
2022/05/29 21:00:20;;;;;;;0.20;0.10;;;19.60;99.90;;;;;;26399413;22;20255;-76
2022/05/29 21:10:24;;;;;;;0.20;0.10;;;19.90;99.90;;;;;;26401681;22;20209;-77
2022/05/29 21:20:29;;;;;;;0.20;0.00;;;19.90;99.90;;;;;;26430290;22;20158;-80
2022/05/29 21:30:34;;;;;;;0.20;0.10;;;19.60;99.90;;;;;;26404297;22;20189;-79
2022/05/29 21:40:39;;;;;;;0.20;0.10;;;19.40;99.90;;;;;;26366620;22;20162;-76
2022/05/29 21:50:43;;;;;;;0.20;0.10;;;19.60;99.90;;;;;;26427625;22;20178;-75
2022/05/29 22:00:51;;;;;;;0.20;0.00;;;19.40;99.90;;;;;;26428401;22;20193;-74
2022/05/29 22:10:56;;;;;;;0.20;0.00;;;19.40;99.90;;;;;;26372504;22;20193;-76
2022/05/29 22:21:07;;;;;;;0.20;0.10;;;19.50;99.90;;;;;;26428349;22;20485;-74
2022/05/29 22:31:36;;;;;;;0.20;0.00;;;19.50;99.90;;;;;;26427584;22;20193;-75
2022/05/29 22:41:41;;;;;;;0.20;0.00;;;19.40;99.90;;;;;;26375588;22;20247;-75
2022/05/29 22:51:53;;;;;;;0.20;0.00;;;19.30;99.90;;;;;;26398638;22;20198;-79
2022/05/29 23:02:10;;;;;;;0.20;0.00;;;19.10;99.90;;;;;;26404870;22;20158;-81
2022/05/29 23:12:14;;;;;;;0.20;0.10;;;19.20;99.90;;;;;;26401643;22;20205;-82
2022/05/29 23:22:24;;;;;;;0.20;0.00;;;18.90;99.90;;;;;;26407461;22;20162;-78
2022/05/29 23:32:31;;;;;;;0.20;0.00;;;18.80;99.90;;;;;;26436026;22;20190;-78
2022/05/29 23:42:37;;;;;;;0.20;0.00;;;18.70;99.90;;;;;;26409539;22;20210;-77
2022/05/29 23:52:41;;;;;;;0.20;0.00;;;18.60;99.90;;;;;;26407406;22;20194;-80
